Time;durP1;ratioP1;P1;durP2;ratioP2;P2;SDS_P1;SDS_P2;PMS_P1;PMS_P2;Temp;Humidity;BMP_temperature;BMP_pressure;BME280_temperature;BME280_humidity;BME280_pressure;Samples;Min_cycle;Max_cycle;Signal;HPM_P1;HPM_P2
2021/07/08 00:01:05;;;;;;;4.63;3.30;;;18.20;92.50;;;;;;5083264;28;20780;-70
2021/07/08 00:03:31;;;;;;;6.35;3.10;;;18.20;92.60;;;;;;5091649;28;20495;-69
2021/07/08 00:05:56;;;;;;;4.82;3.00;;;18.20;92.60;;;;;;5081863;28;20036;-72
2021/07/08 00:08:22;;;;;;;5.50;3.03;;;18.20;92.60;;;;;;5086353;28;20016;-72
2021/07/08 00:10:52;;;;;;;5.90;3.20;;;18.20;92.60;;;;;;5096585;28;20436;-73
2021/07/08 00:13:25;;;;;;;3.63;3.33;;;18.20;92.70;;;;;;5086854;28;20025;-72
2021/07/08 00:15:52;;;;;;;5.63;3.72;;;18.20;92.70;;;;;;5094136;28;20515;-71
2021/07/08 00:18:20;;;;;;;6.75;4.05;;;18.20;92.70;;;;;;5091345;28;20494;-72
2021/07/08 00:20:47;;;;;;;4.25;3.70;;;18.20;92.70;;;;;;5078416;28;20321;-73
2021/07/08 00:23:17;;;;;;;3.42;3.13;;;18.20;92.70;;;;;;5080572;28;20126;-72
2021/07/08 00:25:43;;;;;;;7.00;3.63;;;18.20;92.70;;;;;;5092223;28;20028;-73
2021/07/08 00:28:12;;;;;;;4.13;3.70;;;18.20;92.70;;;;;;5092430;28;20040;-72
2021/07/08 00:30:39;;;;;;;3.85;3.38;;;18.10;92.70;;;;;;5086856;28;20464;-74
2021/07/08 00:33:05;;;;;;;3.90;3.60;;;18.10;92.80;;;;;;5090796;28;20022;-73
2021/07/08 00:35:31;;;;;;;4.88;3.35;;;18.10;92.80;;;;;;5092086;28;20032;-74
2021/07/08 00:37:56;;;;;;;4.82;3.65;;;18.10;92.70;;;;;;5081382;28;20078;-73
2021/07/08 00:40:22;;;;;;;3.80;3.50;;;18.10;92.80;;;;;;5085410;28;20384;-72
2021/07/08 00:42:48;;;;;;;5.93;3.70;;;18.00;92.80;;;;;;5091625;28;20070;-74
2021/07/08 00:45:16;;;;;;;7.45;3.88;;;17.90;92.80;;;;;;5090792;28;20047;-74
2021/07/08 00:47:42;;;;;;;6.35;4.10;;;17.90;92.90;;;;;;5090061;28;20099;-74
2021/07/08 00:50:10;;;;;;;4.80;3.40;;;17.90;93.00;;;;;;5091962;28;20064;-74
2021/07/08 00:52:37;;;;;;;7.03;3.95;;;18.00;93.00;;;;;;5092254;28;20032;-74
2021/07/08 00:55:04;;;;;;;4.03;3.67;;;18.00;93.00;;;;;;5081653;28;20039;-73
2021/07/08 00:57:30;;;;;;;6.47;3.80;;;18.00;93.00;;;;;;5076725;28;20020;-74
2021/07/08 00:59:55;;;;;;;3.40;2.97;;;18.00;93.00;;;;;;5077790;28;20311;-74
2021/07/08 01:02:23;;;;;;;4.38;3.38;;;18.00;93.10;;;;;;5087380;28;20114;-73
2021/07/08 01:04:50;;;;;;;5.05;3.75;;;18.00;93.10;;;;;;5090150;28;20423;-74
2021/07/08 01:07:19;;;;;;;7.13;3.90;;;18.00;93.10;;;;;;5081298;28;20024;-74
2021/07/08 01:09:44;;;;;;;6.88;4.10;;;18.00;93.10;;;;;;5092309;28;20035;-74
2021/07/08 01:12:10;;;;;;;4.78;4.13;;;18.00;93.10;;;;;;5072875;28;20050;-73
2021/07/08 01:14:36;;;;;;;10.00;4.47;;;17.90;93.10;;;;;;5087419;28;20117;-73
2021/07/08 01:17:05;;;;;;;5.68;4.88;;;17.90;93.10;;;;;;5090669;28;20392;-74
2021/07/08 01:19:31;;;;;;;4.95;4.50;;;17.90;93.10;;;;;;5091793;28;20051;-74
2021/07/08 01:21:57;;;;;;;5.80;4.55;;;17.90;93.20;;;;;;5081077;28;20125;-73
2021/07/08 01:24:22;;;;;;;5.05;4.55;;;17.80;93.20;;;;;;5076197;28;20069;-74
2021/07/08 01:26:48;;;;;;;7.03;4.45;;;17.80;93.30;;;;;;5086453;28;20024;-74
2021/07/08 01:29:15;;;;;;;6.93;4.72;;;17.80;93.30;;;;;;5090497;28;20051;-74
2021/07/08 01:31:41;;;;;;;7.55;4.57;;;17.80;93.30;;;;;;5073238;28;20035;-74
2021/07/08 01:34:06;;;;;;;6.38;4.53;;;17.80;93.40;;;;;;5082332;28;20048;-71
2021/07/08 01:36:32;;;;;;;9.73;4.55;;;17.80;93.40;;;;;;5083092;28;20020;-73
2021/07/08 01:38:58;;;;;;;8.63;4.07;;;17.80;93.40;;;;;;5089821;28;20402;-73
2021/07/08 01:41:23;;;;;;;5.20;4.35;;;17.90;93.50;;;;;;5091055;28;20088;-74
2021/07/08 01:43:49;;;;;;;7.78;4.90;;;17.90;93.50;;;;;;5090882;28;20099;-74
2021/07/08 01:46:16;;;;;;;7.63;5.00;;;17.90;93.50;;;;;;5088679;28;20066;-74
2021/07/08 01:48:44;;;;;;;6.90;4.82;;;17.90;93.50;;;;;;5090636;28;20414;-70
2021/07/08 01:51:31;;;;;;;11.43;5.07;;;17.90;93.40;;;;;;5066524;28;20028;-71
2021/07/08 01:53:57;;;;;;;7.57;4.93;;;17.80;93.50;;;;;;5081622;28;20427;-73
2021/07/08 01:56:23;;;;;;;9.05;5.05;;;17.70;93.30;;;;;;5086748;28;20026;-73
2021/07/08 01:58:50;;;;;;;6.53;5.03;;;17.60;93.40;;;;;;5091452;28;20441;-73
2021/07/08 02:01:15;;;;;;;10.98;5.35;;;17.60;93.60;;;;;;5069451;28;20518;-73
2021/07/08 02:03:42;;;;;;;7.80;5.32;;;17.50;93.60;;;;;;5088219;28;20031;-72
2021/07/08 02:06:08;;;;;;;7.68;5.30;;;17.50;93.70;;;;;;5089460;28;20068;-73
2021/07/08 02:08:36;;;;;;;7.05;5.53;;;17.50;93.80;;;;;;5090148;28;20059;-73
2021/07/08 02:11:06;;;;;;;8.05;6.20;;;17.40;93.80;;;;;;5070717;28;20032;-73
2021/07/08 02:13:33;;;;;;;8.27;6.32;;;17.40;93.90;;;;;;5075610;28;20032;-73
2021/07/08 02:16:01;;;;;;;10.73;6.40;;;17.40;93.90;;;;;;5084741;28;20549;-73
2021/07/08 02:18:26;;;;;;;11.30;7.28;;;17.40;94.00;;;;;;5090266;28;20032;-71
2021/07/08 02:20:52;;;;;;;12.10;7.15;;;17.40;94.00;;;;;;5089600;28;20499;-73
2021/07/08 02:23:18;;;;;;;11.27;7.63;;;17.40;94.00;;;;;;5091001;28;20025;-73
2021/07/08 02:25:43;;;;;;;12.82;8.38;;;17.30;93.90;;;;;;5085067;28;20032;-73
2021/07/08 02:28:10;;;;;;;11.00;8.02;;;17.30;94.00;;;;;;5071554;28;20024;-72
2021/07/08 02:30:35;;;;;;;12.52;8.18;;;17.30;94.10;;;;;;5083157;28;20058;-73
2021/07/08 02:33:01;;;;;;;11.70;7.32;;;17.20;94.10;;;;;;5089690;28;20036;-71
2021/07/08 02:35:27;;;;;;;15.88;7.68;;;17.30;94.20;;;;;;5086430;28;20025;-73
2021/07/08 02:37:54;;;;;;;11.90;6.78;;;17.30;94.20;;;;;;5082082;28;20029;-72
2021/07/08 02:40:30;;;;;;;16.73;6.95;;;17.20;94.20;;;;;;5084136;28;20444;-73
2021/07/08 02:42:56;;;;;;;9.55;6.78;;;17.30;94.40;;;;;;5070166;28;20488;-74
2021/07/08 02:45:24;;;;;;;12.65;5.90;;;17.20;94.30;;;;;;5082967;28;20070;-73
2021/07/08 02:47:50;;;;;;;12.45;6.75;;;17.20;94.30;;;;;;5088191;28;20030;-73
2021/07/08 02:50:17;;;;;;;10.95;6.00;;;17.20;94.60;;;;;;5087856;28;20051;-74
2021/07/08 02:52:43;;;;;;;11.32;6.10;;;17.30;94.40;;;;;;5068408;28;20119;-73
2021/07/08 02:55:10;;;;;;;8.20;5.95;;;17.30;94.40;;;;;;5088230;28;20034;-74
2021/07/08 02:57:38;;;;;;;10.20;5.70;;;17.30;94.40;;;;;;5088638;28;20040;-73
2021/07/08 03:00:09;;;;;;;7.38;5.90;;;17.30;94.40;;;;;;5088748;28;20028;-71
2021/07/08 03:02:34;;;;;;;8.70;6.80;;;17.30;94.50;;;;;;5084556;28;20019;-73
2021/07/08 03:05:00;;;;;;;13.48;7.45;;;17.40;94.60;;;;;;5088465;28;20025;-73
2021/07/08 03:07:26;;;;;;;13.75;6.97;;;17.40;94.50;;;;;;5088849;28;20028;-72
2021/07/08 03:09:52;;;;;;;13.02;7.45;;;17.40;94.50;;;;;;5087771;28;20031;-74
2021/07/08 03:12:17;;;;;;;13.65;8.50;;;17.40;94.50;;;;;;5058452;28;20020;-73
2021/07/08 03:14:43;;;;;;;8.48;6.75;;;17.30;94.50;;;;;;5088283;28;20153;-74
2021/07/08 03:17:09;;;;;;;11.02;7.60;;;17.30;94.60;;;;;;5089182;28;20093;-73
2021/07/08 03:19:35;;;;;;;8.00;6.97;;;17.40;94.60;;;;;;5089458;28;20036;-73
2021/07/08 03:22:01;;;;;;;10.70;7.32;;;17.40;94.60;;;;;;5090252;28;20036;-71
2021/07/08 03:24:26;;;;;;;12.68;7.68;;;17.40;94.60;;;;;;5081958;28;20107;-70
2021/07/08 03:26:53;;;;;;;13.75;7.72;;;17.40;94.60;;;;;;5086431;28;20107;-74
2021/07/08 03:29:19;;;;;;;14.25;7.72;;;17.40;94.50;;;;;;5089320;28;20138;-73
2021/07/08 03:31:44;;;;;;;15.77;7.88;;;17.30;94.50;;;;;;5088963;28;20020;-71
2021/07/08 03:34:10;;;;;;;9.20;6.57;;;17.30;94.50;;;;;;5085563;28;20075;-74
2021/07/08 03:36:36;;;;;;;8.30;7.38;;;17.30;94.60;;;;;;5088298;28;20028;-74
2021/07/08 03:39:03;;;;;;;13.43;7.60;;;17.20;94.70;;;;;;5074364;28;20035;-73
2021/07/08 03:41:29;;;;;;;9.80;7.22;;;17.20;94.70;;;;;;5088966;28;20533;-72
2021/07/08 03:43:54;;;;;;;13.23;7.45;;;17.20;94.70;;;;;;5088824;28;20036;-73
2021/07/08 03:46:20;;;;;;;10.57;7.53;;;17.20;94.70;;;;;;5088230;28;20024;-74
2021/07/08 03:48:45;;;;;;;11.25;7.75;;;17.20;94.80;;;;;;5089123;28;20491;-74
2021/07/08 03:51:11;;;;;;;14.38;7.88;;;17.20;94.80;;;;;;5063034;28;20032;-71
2021/07/08 03:53:36;;;;;;;11.55;7.60;;;17.20;94.80;;;;;;5087768;28;20074;-73
2021/07/08 03:56:02;;;;;;;8.88;7.45;;;17.20;94.90;;;;;;5072399;28;20031;-72
2021/07/08 03:58:28;;;;;;;7.70;6.68;;;17.20;94.90;;;;;;5089169;28;20035;-73
2021/07/08 04:00:53;;;;;;;10.70;7.80;;;17.20;94.90;;;;;;5091262;28;20073;-73
2021/07/08 04:03:19;;;;;;;11.60;7.45;;;17.20;94.90;;;;;;5087811;28;20036;-74
2021/07/08 04:05:47;;;;;;;12.77;8.00;;;17.20;94.90;;;;;;5073896;28;20032;-75
2021/07/08 04:08:14;;;;;;;11.57;7.45;;;17.20;95.00;;;;;;5087410;28;20028;-74
2021/07/08 04:10:41;;;;;;;12.60;8.02;;;17.30;95.00;;;;;;5073829;28;20515;-70
2021/07/08 04:13:10;;;;;;;11.18;7.68;;;17.20;95.00;;;;;;5074812;28;20128;-72
2021/07/08 04:15:37;;;;;;;9.73;7.05;;;17.20;95.00;;;;;;5153247;22;20560;-72
2021/07/08 04:18:05;;;;;;;11.73;7.88;;;17.30;95.00;;;;;;5093459;28;20066;-69
2021/07/08 04:20:30;;;;;;;8.50;6.97;;;17.30;94.90;;;;;;5074660;28;20020;-66
2021/07/08 04:22:57;;;;;;;16.08;7.35;;;17.20;94.90;;;;;;5075305;28;20028;-70
2021/07/08 04:25:23;;;;;;;8.82;6.95;;;17.20;95.00;;;;;;5091356;28;20085;-68
2021/07/08 04:27:49;;;;;;;13.60;7.57;;;17.20;95.10;;;;;;5074648;28;20476;-66
2021/07/08 04:30:19;;;;;;;10.30;6.93;;;17.20;95.10;;;;;;5103443;28;20023;-69
2021/07/08 04:32:45;;;;;;;16.35;8.65;;;17.20;95.10;;;;;;5098900;28;20177;-72
2021/07/08 04:35:11;;;;;;;10.15;7.05;;;17.20;95.10;;;;;;5092119;28;20024;-71
2021/07/08 04:37:42;;;;;;;11.88;6.85;;;17.20;95.10;;;;;;5093096;28;20106;-69
2021/07/08 04:40:14;;;;;;;12.15;7.28;;;17.20;95.10;;;;;;5093038;28;20451;-68
2021/07/08 04:42:39;;;;;;;11.50;7.40;;;17.20;95.10;;;;;;5093504;28;20016;-68
2021/07/08 04:45:06;;;;;;;10.90;6.47;;;17.20;95.00;;;;;;5092417;28;20365;-68
2021/07/08 04:47:32;;;;;;;13.85;7.18;;;17.20;95.10;;;;;;5086211;28;20020;-68
2021/07/08 04:49:58;;;;;;;12.23;6.72;;;17.20;95.20;;;;;;5093133;28;20499;-67
2021/07/08 04:52:24;;;;;;;11.38;7.35;;;17.20;95.20;;;;;;5092896;28;20020;-68
2021/07/08 04:54:49;;;;;;;15.13;7.65;;;17.30;95.30;;;;;;5073677;28;20442;-70
2021/07/08 04:57:17;;;;;;;15.70;8.13;;;17.30;95.30;;;;;;5088193;28;20502;-71
2021/07/08 04:59:43;;;;;;;12.38;7.88;;;17.30;95.30;;;;;;5073038;28;20017;-66
2021/07/08 05:02:08;;;;;;;14.77;7.53;;;17.40;95.30;;;;;;5072895;28;20682;-69
2021/07/08 05:04:34;;;;;;;13.43;7.85;;;17.40;95.20;;;;;;5079513;28;20034;-70
2021/07/08 05:06:59;;;;;;;13.00;7.95;;;17.40;95.20;;;;;;5092400;28;20028;-68
2021/07/08 05:09:25;;;;;;;12.85;8.43;;;17.40;95.20;;;;;;5092976;28;20016;-71
2021/07/08 05:11:51;;;;;;;13.80;8.00;;;17.40;95.20;;;;;;5092498;28;20526;-66
2021/07/08 05:14:16;;;;;;;10.70;8.38;;;17.30;95.20;;;;;;5092323;28;20083;-67
2021/07/08 05:16:42;;;;;;;18.50;8.93;;;17.40;95.30;;;;;;5073295;28;20024;-69
2021/07/08 05:19:08;;;;;;;14.27;8.95;;;17.40;95.20;;;;;;5092314;28;20028;-67
2021/07/08 05:21:34;;;;;;;15.70;9.40;;;17.40;95.50;;;;;;5092545;28;20078;-71
2021/07/08 05:24:03;;;;;;;18.05;10.02;;;17.40;95.30;;;;;;5070813;28;20463;-67
2021/07/08 05:26:29;;;;;;;18.05;9.82;;;17.40;95.40;;;;;;5089343;28;20024;-67
2021/07/08 05:28:54;;;;;;;16.25;9.90;;;17.50;95.40;;;;;;5092261;28;20020;-66
2021/07/08 05:31:20;;;;;;;15.10;10.02;;;17.50;95.40;;;;;;5075515;28;20455;-70
2021/07/08 05:33:46;;;;;;;16.50;10.32;;;17.50;95.30;;;;;;5072171;28;20054;-72
2021/07/08 05:36:11;;;;;;;15.38;9.82;;;17.40;95.30;;;;;;5066481;28;20411;-66
2021/07/08 05:38:37;;;;;;;19.20;10.32;;;17.50;95.30;;;;;;5091586;28;20080;-66
2021/07/08 05:41:02;;;;;;;17.23;10.35;;;17.40;95.30;;;;;;5091859;28;20416;-66
2021/07/08 05:43:28;;;;;;;16.08;10.27;;;17.40;95.40;;;;;;5091778;28;20031;-69
2021/07/08 05:45:54;;;;;;;15.95;10.77;;;17.40;95.50;;;;;;5090856;28;20024;-72
2021/07/08 05:48:19;;;;;;;17.25;10.43;;;17.50;95.50;;;;;;5091799;28;20020;-66
2021/07/08 05:50:46;;;;;;;15.38;10.55;;;17.50;95.50;;;;;;5073552;28;20059;-67
2021/07/08 05:53:12;;;;;;;13.60;10.02;;;17.50;95.50;;;;;;5092105;28;20054;-65
2021/07/08 05:55:37;;;;;;;14.43;9.82;;;17.50;95.40;;;;;;5090740;28;20024;-66
2021/07/08 05:58:03;;;;;;;13.07;9.75;;;17.50;95.50;;;;;;5091693;28;20380;-67
2021/07/08 06:00:29;;;;;;;13.43;8.95;;;17.50;95.50;;;;;;5073487;28;20430;-67
2021/07/08 06:02:54;;;;;;;14.73;9.18;;;17.50;95.50;;;;;;5095392;28;20035;-71
2021/07/08 06:05:20;;;;;;;15.25;9.68;;;17.50;95.50;;;;;;5111509;28;20039;-66
2021/07/08 06:07:46;;;;;;;11.77;9.07;;;17.50;95.50;;;;;;5112127;28;20065;-66
2021/07/08 06:10:12;;;;;;;12.63;8.50;;;17.50;95.60;;;;;;5093225;28;20031;-67
2021/07/08 06:12:39;;;;;;;12.55;9.18;;;17.60;95.60;;;;;;5091533;28;20092;-67
2021/07/08 06:15:06;;;;;;;13.13;8.95;;;17.60;95.60;;;;;;5084791;28;22045;-69
2021/07/08 06:17:31;;;;;;;18.55;8.90;;;17.60;95.50;;;;;;5087723;28;20082;-67
2021/07/08 06:19:57;;;;;;;14.27;8.90;;;17.60;95.60;;;;;;5095782;28;20067;-73
2021/07/08 06:22:23;;;;;;;16.25;9.10;;;17.70;95.60;;;;;;5100976;28;20080;-67
2021/07/08 06:24:48;;;;;;;14.90;8.43;;;17.70;95.60;;;;;;5111529;28;20283;-66
2021/07/08 06:27:14;;;;;;;12.07;8.15;;;17.70;95.50;;;;;;5094833;28;20028;-67
2021/07/08 06:29:39;;;;;;;12.20;8.55;;;17.70;95.60;;;;;;5090567;28;20486;-68
2021/07/08 06:32:05;;;;;;;12.27;8.05;;;17.70;95.40;;;;;;5084837;28;20020;-68
2021/07/08 06:34:31;;;;;;;9.27;7.72;;;17.70;95.40;;;;;;5089355;28;20051;-66
2021/07/08 06:36:56;;;;;;;10.48;7.82;;;17.80;95.40;;;;;;5089086;28;20031;-66
2021/07/08 06:39:22;;;;;;;11.63;8.38;;;17.80;95.40;;;;;;5089761;28;20058;-66
2021/07/08 06:41:48;;;;;;;15.60;9.05;;;17.80;95.40;;;;;;5099301;28;20032;-69
2021/07/08 06:44:13;;;;;;;12.80;7.93;;;17.90;95.30;;;;;;5107780;28;20016;-67
2021/07/08 06:46:39;;;;;;;14.43;8.43;;;17.90;95.30;;;;;;5089709;28;20518;-68
2021/07/08 06:49:04;;;;;;;11.70;8.02;;;17.90;95.20;;;;;;5090434;28;20099;-66
2021/07/08 06:51:30;;;;;;;8.70;7.18;;;17.90;95.20;;;;;;5090066;28;20036;-69
2021/07/08 06:53:56;;;;;;;9.88;6.35;;;18.00;95.20;;;;;;5090262;28;20031;-70
2021/07/08 06:56:23;;;;;;;10.90;6.10;;;18.00;95.10;;;;;;5089702;28;20028;-69
2021/07/08 06:58:48;;;;;;;9.45;7.03;;;18.00;95.10;;;;;;5090795;28;20028;-67
2021/07/08 07:01:15;;;;;;;7.95;6.45;;;18.00;95.30;;;;;;5090312;28;20031;-70
2021/07/08 07:03:42;;;;;;;7.57;6.15;;;18.00;95.00;;;;;;5090601;28;20068;-67
2021/07/08 07:06:07;;;;;;;9.35;5.45;;;18.00;95.00;;;;;;5072216;28;20028;-66
2021/07/08 07:08:33;;;;;;;5.60;5.03;;;18.00;95.00;;;;;;5090652;28;20021;-67
2021/07/08 07:11:00;;;;;;;7.18;5.53;;;18.00;94.90;;;;;;5089910;28;20024;-67
2021/07/08 07:13:25;;;;;;;5.85;4.65;;;18.10;94.80;;;;;;5090577;28;20393;-66
2021/07/08 07:15:51;;;;;;;8.43;5.07;;;18.10;95.10;;;;;;5071866;28;20047;-68
2021/07/08 07:18:16;;;;;;;8.60;4.90;;;18.20;94.80;;;;;;5072405;28;20028;-72
2021/07/08 07:20:42;;;;;;;6.40;4.40;;;18.30;94.70;;;;;;5090442;28;20107;-66
2021/07/08 07:23:07;;;;;;;6.55;4.20;;;18.30;94.70;;;;;;5090578;28;20020;-68
2021/07/08 07:25:39;;;;;;;5.97;4.90;;;18.40;94.60;;;;;;5090047;28;20024;-68
2021/07/08 07:28:05;;;;;;;4.32;3.67;;;18.50;94.50;;;;;;5094783;28;20073;-71
2021/07/08 07:30:31;;;;;;;9.50;3.60;;;18.60;94.70;;;;;;5094353;28;20648;-70
2021/07/08 07:32:57;;;;;;;6.15;3.00;;;18.60;94.40;;;;;;5076207;28;20024;-66
2021/07/08 07:35:23;;;;;;;4.85;2.88;;;18.70;94.20;;;;;;5093891;28;20032;-66
2021/07/08 07:37:52;;;;;;;3.55;2.97;;;18.80;94.10;;;;;;5094444;28;20016;-67
2021/07/08 07:40:18;;;;;;;6.22;3.50;;;18.80;94.10;;;;;;5102783;28;20411;-69
2021/07/08 07:42:44;;;;;;;3.05;2.75;;;18.80;94.00;;;;;;5094367;28;20216;-66
2021/07/08 07:45:10;;;;;;;5.80;3.47;;;18.90;94.10;;;;;;5093571;28;20031;-70
2021/07/08 07:47:36;;;;;;;4.38;3.28;;;18.90;94.10;;;;;;5094328;28;20103;-68
2021/07/08 07:50:04;;;;;;;9.15;3.38;;;18.90;94.00;;;;;;5094187;28;20047;-67
2021/07/08 07:52:29;;;;;;;3.50;2.88;;;19.00;94.00;;;;;;5097734;28;20044;-70
2021/07/08 07:54:55;;;;;;;3.45;2.92;;;19.00;93.90;;;;;;5087409;28;20082;-66
2021/07/08 07:57:21;;;;;;;4.05;3.50;;;19.00;93.90;;;;;;5087005;28;20028;-66
2021/07/08 07:59:46;;;;;;;10.45;7.50;;;19.00;94.00;;;;;;5114864;28;20115;-67
2021/07/08 08:02:13;;;;;;;3.80;3.33;;;19.10;94.00;;;;;;5077432;28;20107;-68
2021/07/08 08:04:46;;;;;;;5.88;2.45;;;19.10;94.00;;;;;;5093741;28;20039;-67
2021/07/08 08:09:57;;;;;;;5.85;2.10;;;19.10;93.60;;;;;;5096050;28;20031;-69
2021/07/08 08:12:23;;;;;;;2.22;2.03;;;19.10;93.50;;;;;;5091697;28;20035;-67
2021/07/08 08:14:49;;;;;;;3.47;2.33;;;19.10;93.50;;;;;;5092871;28;20043;-67
2021/07/08 08:17:15;;;;;;;2.58;2.35;;;19.10;93.60;;;;;;5106667;28;20024;-67
2021/07/08 08:19:41;;;;;;;3.70;2.25;;;19.10;93.50;;;;;;5096085;28;20538;-66
2021/07/08 08:22:07;;;;;;;4.55;2.40;;;19.10;93.50;;;;;;5103060;28;20031;-69
2021/07/08 08:24:33;;;;;;;4.18;2.75;;;19.20;93.50;;;;;;5093049;28;20022;-70
2021/07/08 08:26:58;;;;;;;7.88;2.33;;;19.30;93.50;;;;;;5093072;28;20044;-69
2021/07/08 08:29:25;;;;;;;3.60;2.10;;;19.30;93.30;;;;;;5093641;28;20082;-66
2021/07/08 08:31:51;;;;;;;8.32;2.00;;;19.30;93.20;;;;;;5075225;28;20533;-69
2021/07/08 08:34:17;;;;;;;3.00;2.40;;;19.30;93.10;;;;;;5093123;28;20484;-68
2021/07/08 08:36:44;;;;;;;3.88;2.42;;;19.20;93.00;;;;;;5092963;28;20032;-68
2021/07/08 08:39:11;;;;;;;2.50;2.30;;;19.20;93.00;;;;;;5092606;28;20027;-67
2021/07/08 08:41:37;;;;;;;2.22;2.03;;;19.20;93.00;;;;;;5093041;28;20024;-66
2021/07/08 08:44:04;;;;;;;2.08;1.88;;;19.30;93.00;;;;;;5093086;28;20475;-66
2021/07/08 08:46:33;;;;;;;2.10;1.70;;;19.30;92.90;;;;;;5089199;28;20020;-67
2021/07/08 08:49:00;;;;;;;3.50;1.90;;;19.30;92.90;;;;;;5092833;28;20023;-70
2021/07/08 08:51:25;;;;;;;3.35;1.90;;;19.30;92.90;;;;;;5088589;28;20027;-67
2021/07/08 08:53:51;;;;;;;2.33;1.40;;;19.40;92.90;;;;;;5069625;28;20384;-71
2021/07/08 08:56:17;;;;;;;1.30;1.17;;;19.40;92.60;;;;;;5071247;28;20024;-66
2021/07/08 08:58:42;;;;;;;4.75;1.45;;;19.50;92.50;;;;;;5093105;28;20031;-66
2021/07/08 09:01:08;;;;;;;1.77;1.65;;;19.50;92.40;;;;;;5100745;28;20537;-66
2021/07/08 09:03:34;;;;;;;1.88;1.70;;;19.50;92.40;;;;;;5074772;28;20111;-70
2021/07/08 09:06:11;;;;;;;3.05;1.63;;;19.50;92.20;;;;;;5092057;28;20380;-67
2021/07/08 09:08:49;;;;;;;98.88;74.75;;;19.50;92.10;;;;;;5074490;28;20052;-66
2021/07/08 09:11:21;;;;;;;6.97;4.75;;;19.50;92.20;;;;;;5072803;28;20078;-66
2021/07/08 09:13:50;;;;;;;;;;;19.60;92.30;;;;;;5072921;28;20028;-72
2021/07/08 09:16:25;;;;;;;2.10;1.90;;;19.60;92.30;;;;;;5091847;28;20276;-70
2021/07/08 09:19:17;;;;;;;3.90;2.30;;;19.60;92.50;;;;;;5092712;28;20111;-67
2021/07/08 09:21:55;;;;;;;4.05;2.17;;;19.70;92.30;;;;;;5092349;28;20499;-67
2021/07/08 09:24:34;;;;;;;2.17;1.98;;;19.70;92.30;;;;;;5092456;28;20032;-66
2021/07/08 09:27:03;;;;;;;2.08;1.95;;;19.80;92.20;;;;;;5092041;28;20100;-66
2021/07/08 09:29:33;;;;;;;3.13;2.13;;;19.90;92.40;;;;;;5068414;28;20020;-67
2021/07/08 09:32:21;;;;;;;2.08;1.88;;;20.00;92.00;;;;;;5091375;28;20023;-66
2021/07/08 09:34:48;;;;;;;3.13;2.83;;;20.10;91.90;;;;;;5103947;28;20020;-67
2021/07/08 09:37:17;;;;;;;2.53;2.35;;;20.10;91.80;;;;;;5073675;28;20429;-66
2021/07/08 09:39:47;;;;;;;2.85;2.63;;;20.10;91.80;;;;;;5091479;28;20027;-67
2021/07/08 09:42:31;;;;;;;3.97;2.13;;;20.20;91.90;;;;;;5073628;28;20032;-67
2021/07/08 09:45:08;;;;;;;2.10;1.90;;;20.30;91.70;;;;;;5090535;28;20012;-68
2021/07/08 09:47:34;;;;;;;2.85;1.67;;;20.30;91.70;;;;;;5091917;28;20078;-67
2021/07/08 09:50:00;;;;;;;4.20;1.92;;;20.40;91.60;;;;;;5073437;28;20020;-66
2021/07/08 09:52:26;;;;;;;1.77;1.50;;;20.40;91.60;;;;;;5088740;28;20549;-66
2021/07/08 09:57:50;;;;;;;2.88;1.83;;;20.60;91.40;;;;;;5091600;28;20028;-67
2021/07/08 10:00:18;;;;;;;1.88;1.52;;;20.70;91.20;;;;;;5073343;28;20078;-67
2021/07/08 10:02:45;;;;;;;2.75;2.00;;;20.70;91.10;;;;;;5090106;28;20167;-69
2021/07/08 10:05:11;;;;;;;2.33;1.65;;;20.80;91.10;;;;;;5089828;28;20028;-70
2021/07/08 10:07:38;;;;;;;2.28;1.65;;;20.80;91.10;;;;;;5069675;28;20028;-67
2021/07/08 10:10:05;;;;;;;3.40;1.40;;;21.00;91.00;;;;;;5071329;28;20020;-68
2021/07/08 10:12:32;;;;;;;2.15;1.77;;;21.10;90.90;;;;;;5089968;28;20441;-66
2021/07/08 10:15:00;;;;;;;5.85;1.63;;;21.30;90.60;;;;;;5090172;28;20036;-68
2021/07/08 10:17:30;;;;;;;2.88;1.30;;;21.50;90.30;;;;;;5084771;28;20060;-66
2021/07/08 10:19:57;;;;;;;4.93;1.45;;;21.70;90.10;;;;;;5086197;28;20024;-68
2021/07/08 10:22:23;;;;;;;2.22;1.45;;;21.80;90.10;;;;;;5072905;28;20028;-66
2021/07/08 10:24:49;;;;;;;1.05;1.05;;;22.00;90.00;;;;;;5090688;28;20030;-67
2021/07/08 10:27:18;;;;;;;2.95;1.17;;;22.10;89.20;;;;;;5091380;28;20023;-67
2021/07/08 10:29:45;;;;;;;1.38;0.93;;;22.20;88.70;;;;;;5091241;28;20024;-67
2021/07/08 10:32:15;;;;;;;1.65;0.70;;;22.20;87.80;;;;;;5091295;28;20028;-67
2021/07/08 10:34:49;;;;;;;1.63;1.00;;;22.10;87.00;;;;;;5072053;28;20035;-67
2021/07/08 10:37:29;;;;;;;2.10;0.90;;;22.10;86.20;;;;;;5089340;28;20051;-68
2021/07/08 10:39:56;;;;;;;1.33;0.82;;;22.20;85.90;;;;;;5073032;28;20185;-71
2021/07/08 10:42:44;;;;;;;2.65;1.10;;;22.20;85.90;;;;;;5072995;28;20083;-68
2021/07/08 10:45:38;;;;;;;1.98;0.90;;;22.20;85.40;;;;;;5090128;28;20012;-67
2021/07/08 10:48:15;;;;;;;1.08;1.08;;;22.20;85.80;;;;;;5062740;28;20123;-69
2021/07/08 10:50:43;;;;;;;2.55;1.10;;;22.20;85.60;;;;;;5090428;28;20025;-69
2021/07/08 10:53:31;;;;;;;1.33;1.13;;;22.20;85.50;;;;;;5070937;28;20032;-69
2021/07/08 10:56:32;;;;;;;1.23;1.13;;;22.30;85.40;;;;;;5089142;28;20024;-69
2021/07/08 10:58:58;;;;;;;1.40;1.25;;;22.30;85.20;;;;;;5090155;28;20093;-68
2021/07/08 11:01:25;;;;;;;1.08;1.08;;;22.40;85.60;;;;;;5087761;28;20115;-69
2021/07/08 11:03:54;;;;;;;0.95;0.95;;;22.40;85.00;;;;;;5072314;28;20085;-69
2021/07/08 11:06:30;;;;;;;1.98;1.30;;;22.40;84.50;;;;;;5057927;28;20115;-69
2021/07/08 11:09:00;;;;;;;2.08;1.67;;;22.40;83.90;;;;;;5078688;28;20031;-69
2021/07/08 11:11:26;;;;;;;2.28;1.40;;;22.30;84.30;;;;;;5090325;28;20025;-69
2021/07/08 11:13:54;;;;;;;1.23;1.20;;;22.30;84.70;;;;;;5090140;28;20502;-69
2021/07/08 11:16:43;;;;;;;2.17;1.10;;;22.40;84.80;;;;;;5089052;28;20075;-68
2021/07/08 11:19:12;;;;;;;2.10;1.20;;;22.30;84.50;;;;;;5085954;28;20108;-69
2021/07/08 11:22:13;;;;;;;1.23;1.08;;;22.30;84.40;;;;;;5090237;28;20027;-68
2021/07/08 11:24:39;;;;;;;3.83;1.60;;;22.30;84.30;;;;;;5051215;28;20107;-68
2021/07/08 11:27:07;;;;;;;3.47;1.33;;;22.30;84.10;;;;;;5085832;28;20083;-68
2021/07/08 11:29:38;;;;;;;1.70;1.20;;;22.20;83.90;;;;;;5090091;28;20092;-69
2021/07/08 11:32:28;;;;;;;1.70;1.00;;;22.20;84.10;;;;;;5089916;28;20105;-69
2021/07/08 11:35:06;;;;;;;1.00;1.00;;;22.20;83.50;;;;;;5089098;28;20118;-69
2021/07/08 11:37:44;;;;;;;1.20;0.95;;;22.20;83.30;;;;;;5089904;28;20510;-68
2021/07/08 11:40:15;;;;;;;1.40;0.80;;;22.10;83.40;;;;;;5069050;28;20071;-68
2021/07/08 11:42:43;;;;;;;0.73;0.73;;;22.10;82.90;;;;;;5070676;28;20464;-68
2021/07/08 11:45:18;;;;;;;2.58;1.02;;;22.00;83.20;;;;;;5089331;28;20482;-69
2021/07/08 11:47:48;;;;;;;1.00;0.90;;;22.00;82.80;;;;;;5071249;28;20601;-69
2021/07/08 11:50:22;;;;;;;0.95;0.80;;;22.00;82.40;;;;;;5090067;28;20024;-68
2021/07/08 11:53:04;;;;;;;0.60;0.60;;;21.90;82.20;;;;;;5072053;28;20032;-69
2021/07/08 11:55:30;;;;;;;1.50;0.70;;;22.00;82.40;;;;;;5088358;28;20141;-69
2021/07/08 11:58:02;;;;;;;0.90;0.80;;;21.90;82.40;;;;;;5089337;28;20415;-69
2021/07/08 12:00:32;;;;;;;0.88;0.85;;;21.90;82.00;;;;;;5087562;28;20028;-68
2021/07/08 12:03:00;;;;;;;1.83;0.70;;;21.90;81.70;;;;;;5089891;28;20024;-69
2021/07/08 12:05:26;;;;;;;1.08;0.93;;;21.90;81.70;;;;;;5088918;28;20045;-68
2021/07/08 12:10:28;;;;;;;1.53;0.90;;;21.80;82.20;;;;;;5089929;28;20034;-69
2021/07/08 12:12:55;;;;;;;0.80;0.80;;;21.90;82.10;;;;;;5072845;28;20116;-68
2021/07/08 12:15:22;;;;;;;0.80;0.80;;;21.90;82.00;;;;;;5092431;28;20035;-68
2021/07/08 12:17:59;;;;;;;1.10;0.90;;;22.00;81.60;;;;;;5091626;28;20492;-68
2021/07/08 12:20:25;;;;;;;3.22;1.60;;;22.00;81.20;;;;;;5092715;28;20032;-68
2021/07/08 12:22:53;;;;;;;1.27;0.82;;;22.00;81.30;;;;;;5093284;28;20032;-69
2021/07/08 12:25:20;;;;;;;0.98;0.90;;;22.00;81.50;;;;;;5085929;28;20460;-69
2021/07/08 12:27:46;;;;;;;5.80;0.88;;;22.00;81.60;;;;;;5092495;28;20031;-69
2021/07/08 12:30:21;;;;;;;2.42;0.82;;;22.00;81.50;;;;;;5074882;28;20519;-68
2021/07/08 12:32:47;;;;;;;2.33;0.73;;;22.00;81.40;;;;;;5092570;28;20464;-69
2021/07/08 12:35:13;;;;;;;0.93;0.93;;;22.00;81.70;;;;;;5092643;28;20027;-69
2021/07/08 12:37:41;;;;;;;0.88;0.88;;;22.10;82.00;;;;;;5074751;28;20055;-68
2021/07/08 12:40:14;;;;;;;1.50;0.90;;;22.10;81.80;;;;;;5092805;28;20047;-68
2021/07/08 12:42:48;;;;;;;1.05;0.80;;;22.10;81.40;;;;;;5092372;28;20029;-69
2021/07/08 12:45:17;;;;;;;0.85;0.80;;;22.10;81.20;;;;;;5092196;28;20029;-69
2021/07/08 12:47:47;;;;;;;1.70;0.90;;;22.00;80.60;;;;;;5092553;28;20052;-68
2021/07/08 12:50:19;;;;;;;1.90;0.90;;;22.00;81.00;;;;;;5091719;28;20100;-68
2021/07/08 12:52:45;;;;;;;0.82;0.80;;;21.90;81.00;;;;;;5079898;28;20036;-68
2021/07/08 12:55:39;;;;;;;1.10;1.00;;;21.90;80.90;;;;;;5073914;28;20050;-68